createdAt,value
2016-12-11T00:00:21.925Z,79.99
2016-12-11T00:00:49.807Z,79.7
2016-12-11T00:01:17.676Z,79.12
2016-12-11T00:01:45.496Z,79.32
2016-12-11T00:02:13.316Z,79.32
2016-12-11T00:02:41.399Z,79.12
2016-12-11T00:03:09.266Z,79.6
2016-12-11T00:03:37.073Z,79.85
2016-12-11T00:04:04.920Z,79.99
2016-12-11T00:04:32.753Z,79.6
2016-12-11T00:05:00.571Z,79.6
2016-12-11T00:05:28.529Z,80.57
2016-12-11T00:05:56.541Z,80.34
2016-12-11T00:06:24.466Z,80.24
2016-12-11T00:06:52.316Z,80.34
2016-12-11T00:07:20.141Z,80.47
2016-12-11T00:07:48.005Z,80.54
2016-12-11T00:08:15.812Z,79.7
2016-12-11T00:08:43.672Z,80.19
2016-12-11T00:09:11.550Z,79.6
2016-12-11T00:09:39.429Z,80.38
2016-12-11T00:10:07.276Z,80.38
2016-12-11T00:10:35.127Z,80.63
2016-12-11T00:11:02.950Z,79.95
2016-12-11T00:11:30.799Z,79.76
2016-12-11T00:11:58.675Z,80.24
2016-12-11T00:12:26.557Z,80.34
2016-12-11T00:12:54.402Z,80.54
2016-12-11T00:13:22.256Z,80.44
2016-12-11T00:13:50.096Z,80.54
2016-12-11T00:14:18.082Z,80.44
2016-12-11T00:14:46.006Z,80.44
2016-12-11T00:15:13.840Z,80.63
2016-12-11T00:15:41.733Z,80.44
2016-12-11T00:16:09.560Z,80.44
2016-12-11T00:16:37.393Z,80.34
2016-12-11T00:17:05.275Z,80.63
2016-12-11T00:17:33.116Z,80.44
2016-12-11T00:18:01.003Z,80.63
2016-12-11T00:18:28.955Z,80.67
2016-12-11T00:18:56.772Z,80.44
2016-12-11T00:19:24.773Z,80.44
2016-12-11T00:19:52.676Z,80.44
2016-12-11T00:20:20.632Z,80.82
2016-12-11T00:20:48.579Z,80.63
2016-12-11T00:21:16.435Z,80.34
2016-12-11T00:21:44.334Z,80.73
2016-12-11T00:22:12.197Z,80.73
2016-12-11T00:22:40.071Z,80.47
2016-12-11T00:23:07.949Z,80.47
2016-12-11T00:23:35.769Z,80.44
2016-12-11T00:24:03.664Z,80.05
2016-12-11T00:24:31.612Z,79.57
2016-12-11T00:24:59.446Z,79.7
2016-12-11T00:25:27.330Z,80.47
2016-12-11T00:25:55.183Z,80.15
2016-12-11T00:26:23.033Z,80.47
2016-12-11T00:26:50.925Z,80.38
2016-12-11T00:27:18.801Z,81.02
2016-12-11T00:27:46.642Z,80.63
2016-12-11T00:28:14.495Z,80.73
2016-12-11T00:28:42.323Z,81.5
2016-12-11T00:29:10.282Z,81.5
2016-12-11T00:29:38.137Z,80.82
2016-12-11T00:30:05.992Z,81.6
2016-12-11T00:30:33.839Z,81.21
2016-12-11T00:31:01.697Z,81.02
2016-12-11T00:31:29.540Z,81.6
2016-12-11T00:31:57.331Z,81.7
2016-12-11T00:32:25.190Z,81.21
2016-12-11T00:32:53.004Z,81.02
2016-12-11T00:33:20.816Z,81.12
2016-12-11T00:33:48.680Z,80.92
2016-12-11T00:34:16.578Z,81.79
2016-12-11T00:34:44.438Z,81.5
2016-12-11T00:35:12.251Z,81.6
2016-12-11T00:35:40.098Z,82.18
2016-12-11T00:36:07.951Z,82.08
2016-12-11T00:36:35.748Z,82.28
2016-12-11T00:37:03.605Z,82.18
2016-12-11T00:37:31.496Z,82.28
2016-12-11T00:37:59.388Z,82.47
2016-12-11T00:38:27.273Z,81.98
2016-12-11T00:38:55.159Z,81.98
2016-12-11T00:39:23.052Z,82.18
2016-12-11T00:39:51.011Z,82.47
2016-12-11T00:40:18.870Z,81.6
2016-12-11T00:40:46.726Z,81.79
2016-12-11T00:41:14.593Z,82.28
2016-12-11T00:41:42.401Z,81.7
2016-12-11T00:42:10.339Z,81.79
2016-12-11T00:42:38.221Z,81.4
2016-12-11T00:43:06.061Z,81.4
2016-12-11T00:43:33.930Z,81.7
2016-12-11T00:44:01.787Z,82.12
2016-12-11T00:44:29.640Z,81.7
2016-12-11T00:44:57.485Z,81.6
2016-12-11T00:45:25.373Z,81.89
2016-12-11T00:45:53.208Z,81.79
2016-12-11T00:46:21.053Z,81.98
2016-12-11T00:46:48.886Z,82.28
2016-12-11T00:47:16.710Z,82.28
2016-12-11T00:47:44.507Z,82.08
2016-12-11T00:48:12.326Z,82.18
2016-12-11T00:48:40.111Z,82.08
2016-12-11T00:49:08.005Z,82.08
2016-12-11T00:49:35.873Z,82.18
2016-12-11T00:50:03.737Z,82.76
2016-12-11T00:50:31.644Z,81.89
2016-12-11T00:50:59.476Z,82.08
2016-12-11T00:51:27.302Z,82.37
2016-12-11T00:51:55.152Z,82.18
2016-12-11T00:52:23.014Z,81.98
2016-12-11T00:52:50.869Z,83.15
2016-12-11T00:53:18.689Z,83.25
2016-12-11T00:53:46.633Z,82.37
2016-12-11T00:54:14.479Z,82.37
2016-12-11T00:54:42.300Z,82.28
2016-12-11T00:55:10.240Z,82.28
2016-12-11T00:55:38.075Z,82.66
2016-12-11T00:56:05.919Z,83.15
2016-12-11T00:56:33.752Z,82.18
2016-12-11T00:57:01.580Z,82.66
2016-12-11T00:57:29.467Z,82.28
2016-12-11T00:57:57.347Z,81.98
2016-12-11T00:58:25.292Z,82.66
2016-12-11T00:58:53.195Z,82.76
2016-12-11T00:59:21.081Z,82.76
2016-12-11T00:59:48.911Z,82.66
2016-12-11T01:00:16.748Z,83.15
2016-12-11T01:00:44.627Z,82.86
2016-12-11T01:01:12.486Z,82.28
2016-12-11T01:01:40.409Z,82.86
2016-12-11T01:02:08.250Z,82.66
2016-12-11T01:02:36.160Z,82.95
2016-12-11T01:03:03.975Z,82.66
2016-12-11T01:03:31.844Z,82.76
2016-12-11T01:03:59.748Z,82.18
2016-12-11T01:04:27.568Z,82.66
2016-12-11T01:04:55.417Z,82.95
2016-12-11T01:05:23.264Z,83.15
2016-12-11T01:05:51.150Z,83.3
2016-12-11T01:06:19.008Z,83.53
2016-12-11T01:06:46.945Z,82.91
2016-12-11T01:07:14.787Z,83.2
2016-12-11T01:07:42.619Z,83.3
2016-12-11T01:08:10.459Z,83.25
2016-12-11T01:08:38.323Z,83.59
2016-12-11T01:09:06.153Z,83.69
2016-12-11T01:09:33.964Z,83.98
2016-12-11T01:10:01.869Z,83.4
2016-12-11T01:10:29.748Z,83.49
2016-12-11T01:10:57.578Z,83.4
2016-12-11T01:11:25.433Z,83.88
2016-12-11T01:11:53.203Z,83.88
2016-12-11T01:12:21.020Z,83.59
2016-12-11T01:12:48.858Z,84.27
2016-12-11T01:13:16.700Z,84.08
2016-12-11T01:13:44.716Z,83.98
2016-12-11T01:14:12.547Z,83.78
2016-12-11T01:14:40.375Z,83.49
2016-12-11T01:15:08.329Z,83.49
2016-12-11T01:15:36.192Z,83.01
2016-12-11T01:16:04.059Z,83.98
2016-12-11T01:16:31.857Z,84.17
2016-12-11T01:16:59.786Z,83.2
2016-12-11T01:17:27.607Z,83.4
2016-12-11T01:17:55.462Z,83.88
2016-12-11T01:18:23.483Z,83.69
2016-12-11T01:18:51.316Z,83.49
2016-12-11T01:19:19.241Z,83.78
2016-12-11T01:19:47.041Z,83.59
2016-12-11T01:20:14.882Z,83.88
2016-12-11T01:20:42.742Z,83.88
2016-12-11T01:21:10.608Z,83.59
2016-12-11T01:21:38.444Z,83.3
2016-12-11T01:22:06.411Z,83.11
2016-12-11T01:22:34.243Z,83.3
2016-12-11T01:23:02.077Z,84.17
2016-12-11T01:23:29.931Z,84.17
2016-12-11T01:23:57.797Z,84.08
2016-12-11T01:24:25.620Z,84.36
2016-12-11T01:24:53.512Z,84.56
2016-12-11T01:25:21.358Z,83.98
2016-12-11T01:25:49.191Z,83.59
2016-12-11T01:26:17.030Z,83.49
2016-12-11T01:26:44.862Z,83.49
2016-12-11T01:27:12.690Z,83.3
2016-12-11T01:27:40.551Z,83.78
2016-12-11T01:28:08.395Z,83.69
2016-12-11T01:28:36.253Z,83.2
2016-12-11T01:29:04.227Z,83.2
2016-12-11T01:29:32.179Z,83.11
2016-12-11T01:29:59.994Z,83.49
2016-12-11T01:30:27.836Z,82.91
2016-12-11T01:30:55.777Z,83.11
2016-12-11T01:31:23.641Z,83.2
2016-12-11T01:31:51.479Z,83.11
2016-12-11T01:32:19.359Z,82.91
2016-12-11T01:32:47.191Z,83.01
2016-12-11T01:33:15.022Z,83.2
2016-12-11T01:33:42.993Z,83.3
2016-12-11T01:34:10.821Z,83.11
2016-12-11T01:34:38.718Z,83.4
2016-12-11T01:35:06.599Z,83.53
2016-12-11T01:35:34.358Z,83.11
2016-12-11T01:36:02.288Z,83.11
2016-12-11T01:36:30.093Z,83.05
2016-12-11T01:36:58.000Z,82.62
2016-12-11T01:37:25.853Z,82.81
2016-12-11T01:37:53.736Z,83.11
2016-12-11T01:38:21.581Z,83.4
2016-12-11T01:38:49.446Z,82.72
2016-12-11T01:39:17.300Z,82.23
2016-12-11T01:39:45.167Z,82.33
2016-12-11T01:40:12.981Z,82.14
2016-12-11T01:40:40.805Z,82.53
2016-12-11T01:41:08.740Z,82.23
2016-12-11T01:41:36.611Z,82.23
2016-12-11T01:42:04.452Z,82.91
2016-12-11T01:42:32.265Z,83.01
2016-12-11T01:43:00.084Z,82.91
2016-12-11T01:43:27.941Z,83.11
2016-12-11T01:43:55.833Z,83.3
2016-12-11T01:44:23.644Z,83.11
2016-12-11T01:44:51.496Z,83.11
2016-12-11T01:45:19.373Z,83.01
2016-12-11T01:45:47.181Z,83.11
2016-12-11T01:46:15.156Z,82.91
2016-12-11T01:46:43.058Z,82.53
2016-12-11T01:47:10.883Z,83.2
2016-12-11T01:47:38.746Z,83.4
2016-12-11T01:48:06.636Z,83.11
2016-12-11T01:48:34.480Z,82.81
2016-12-11T01:49:02.317Z,82.91
2016-12-11T01:49:30.146Z,82.81
2016-12-11T01:49:57.989Z,83.01
2016-12-11T01:50:25.824Z,83.11
2016-12-11T01:50:53.695Z,83.2
2016-12-11T01:51:21.472Z,82.81
2016-12-11T01:51:49.322Z,82.72
2016-12-11T01:52:17.137Z,82.53
2016-12-11T01:52:44.974Z,83.01
2016-12-11T01:53:12.828Z,82.81
2016-12-11T01:53:40.711Z,82.62
2016-12-11T01:54:08.565Z,82.14
2016-12-11T01:54:36.451Z,82.14
2016-12-11T01:55:04.276Z,82.91
2016-12-11T01:55:32.139Z,83.2
2016-12-11T01:56:00.029Z,83.01
2016-12-11T01:56:27.918Z,83.01
2016-12-11T01:56:55.785Z,83.3
2016-12-11T01:57:23.596Z,83.11
2016-12-11T01:57:51.525Z,83.4
2016-12-11T01:58:19.410Z,83.78
2016-12-11T01:58:47.245Z,83.4
2016-12-11T01:59:15.143Z,83.3
2016-12-11T01:59:42.953Z,83.01
2016-12-11T02:00:10.814Z,83.49
2016-12-11T02:00:38.649Z,82.91
2016-12-11T02:01:06.518Z,83.01
2016-12-11T02:01:34.394Z,82.62
2016-12-11T02:02:02.216Z,83.11
2016-12-11T02:02:30.048Z,83.2
2016-12-11T02:02:57.845Z,83.01
2016-12-11T02:03:25.662Z,82.62
2016-12-11T02:03:53.541Z,83.11
2016-12-11T02:04:21.424Z,83.88
2016-12-11T02:04:49.338Z,84.13
2016-12-11T02:05:17.186Z,84.08
2016-12-11T02:05:45.041Z,84.17
2016-12-11T02:06:12.902Z,83.64
2016-12-11T02:06:40.732Z,83.94
2016-12-11T02:07:08.593Z,83.49
2016-12-11T02:07:36.439Z,83.88
2016-12-11T02:08:04.300Z,83.59
2016-12-11T02:08:32.145Z,83.4
2016-12-11T02:09:00.066Z,83.69
2016-12-11T02:09:28.053Z,83.59
2016-12-11T02:09:55.901Z,83.84
2016-12-11T02:10:23.694Z,83.45
2016-12-11T02:10:51.513Z,83.98
2016-12-11T02:11:19.318Z,83.3
2016-12-11T02:11:47.136Z,83.4
2016-12-11T02:12:15.103Z,83.2
2016-12-11T02:12:42.979Z,83.49
2016-12-11T02:13:10.994Z,83.11
2016-12-11T02:13:38.791Z,83.3
2016-12-11T02:14:06.750Z,83.26
2016-12-11T02:14:34.609Z,83.01
2016-12-11T02:15:02.454Z,83.2
2016-12-11T02:15:30.325Z,83.3
2016-12-11T02:15:58.153Z,83.2
2016-12-11T02:16:26.072Z,83.11
2016-12-11T02:16:53.902Z,82.53
2016-12-11T02:17:21.754Z,82.58
2016-12-11T02:17:49.598Z,83.98
2016-12-11T02:18:17.415Z,83.78
2016-12-11T02:18:45.223Z,83.45
2016-12-11T02:19:13.090Z,83.59
2016-12-11T02:19:40.885Z,83.01
2016-12-11T02:20:08.699Z,82.62
2016-12-11T02:20:36.634Z,83.11
2016-12-11T02:21:04.493Z,83.11
2016-12-11T02:21:32.341Z,83.2
2016-12-11T02:22:00.169Z,82.81
2016-12-11T02:22:28.062Z,82.23
2016-12-11T02:22:55.908Z,82.14
2016-12-11T02:23:23.775Z,82.48
2016-12-11T02:23:51.720Z,81.95
2016-12-11T02:24:19.569Z,81.9
2016-12-11T02:24:47.440Z,82.43
2016-12-11T02:25:15.309Z,82.48
2016-12-11T02:25:43.238Z,82.04
2016-12-11T02:26:11.067Z,82.29
2016-12-11T02:26:38.947Z,82.58
2016-12-11T02:27:06.794Z,82.62
2016-12-11T02:27:34.612Z,82.33
2016-12-11T02:28:02.467Z,81.37
2016-12-11T02:28:30.280Z,82.14
2016-12-11T02:28:58.302Z,81.85
2016-12-11T02:29:26.140Z,81.95
2016-12-11T02:29:53.968Z,82.14
2016-12-11T02:30:21.946Z,82.53
2016-12-11T02:30:49.827Z,82.62
2016-12-11T02:31:17.683Z,81.95
2016-12-11T02:31:45.531Z,82.43
2016-12-11T02:32:13.370Z,82.23
2016-12-11T02:32:41.179Z,82.14
2016-12-11T02:33:09.008Z,82
2016-12-11T02:33:36.803Z,82.23
2016-12-11T02:34:04.669Z,82.23
2016-12-11T02:34:32.457Z,82.43
2016-12-11T02:35:00.412Z,82.04
2016-12-11T02:35:28.306Z,82.62
2016-12-11T02:35:56.289Z,82.62
2016-12-11T02:36:24.106Z,82.43
2016-12-11T02:36:51.972Z,82.23
2016-12-11T02:37:19.835Z,82.14
2016-12-11T02:37:47.679Z,82.04
2016-12-11T02:38:15.565Z,82.14
2016-12-11T02:38:43.478Z,82.33
2016-12-11T02:39:11.302Z,82.33
2016-12-11T02:39:39.139Z,82.04
2016-12-11T02:40:06.951Z,82.23
2016-12-11T02:40:34.766Z,82.04
2016-12-11T02:41:02.609Z,82.14
2016-12-11T02:41:30.441Z,81.46
2016-12-11T02:41:58.246Z,82.43
2016-12-11T02:42:26.104Z,81.85
2016-12-11T02:42:53.954Z,81.65
2016-12-11T02:43:21.832Z,81.56
2016-12-11T02:43:49.672Z,81.75
2016-12-11T02:44:17.470Z,82.23
2016-12-11T02:44:45.312Z,82.33
2016-12-11T02:45:13.166Z,82.23
2016-12-11T02:45:41.014Z,82.23
2016-12-11T02:46:08.887Z,82.23
2016-12-11T02:46:36.848Z,82.62
2016-12-11T02:47:04.707Z,82.04
2016-12-11T02:47:32.604Z,82.53
2016-12-11T02:48:00.552Z,82.23
2016-12-11T02:48:28.426Z,82.43
2016-12-11T02:48:56.374Z,82.62
2016-12-11T02:49:24.254Z,82.81
2016-12-11T02:49:52.059Z,82.62
2016-12-11T02:50:19.957Z,82.62
2016-12-11T02:50:47.836Z,82.43
2016-12-11T02:51:15.692Z,82.33
2016-12-11T02:51:43.591Z,82.53
2016-12-11T02:52:11.438Z,82.33
2016-12-11T02:52:39.244Z,82.53
2016-12-11T02:53:07.040Z,82.43
2016-12-11T02:53:34.851Z,82.62
2016-12-11T02:54:02.714Z,82.23
2016-12-11T02:54:30.574Z,82.04
2016-12-11T02:54:58.384Z,82.72
2016-12-11T02:55:26.258Z,82.43
2016-12-11T02:55:54.134Z,82.14
2016-12-11T02:56:22.007Z,82.33
2016-12-11T02:56:49.958Z,82.23
2016-12-11T02:57:17.923Z,82.43
2016-12-11T02:57:45.844Z,82.72
2016-12-11T02:58:13.675Z,82.62
2016-12-11T02:58:41.591Z,82.43
2016-12-11T02:59:09.438Z,82.81
2016-12-11T02:59:37.244Z,82.78
2016-12-11T03:00:05.091Z,82.62
2016-12-11T03:00:33.069Z,82.78
2016-12-11T03:01:00.898Z,82.48
2016-12-11T03:01:28.749Z,82.81
2016-12-11T03:01:56.713Z,82.97
2016-12-11T03:02:24.508Z,82.62
2016-12-11T03:02:52.344Z,83.11
2016-12-11T03:03:20.193Z,83.16
2016-12-11T03:03:48.076Z,82.87
2016-12-11T03:04:15.897Z,82.91
2016-12-11T03:04:43.761Z,82.58
2016-12-11T03:05:11.661Z,82.87
2016-12-11T03:05:39.479Z,83.26
2016-12-11T03:06:07.342Z,83.06
2016-12-11T03:06:35.172Z,83.45
2016-12-11T03:07:02.958Z,83.16
2016-12-11T03:07:30.798Z,83.26
2016-12-11T03:07:58.687Z,83.26
2016-12-11T03:08:26.742Z,82.97
2016-12-11T03:08:54.551Z,83.26
2016-12-11T03:09:22.408Z,83.16
2016-12-11T03:09:50.258Z,83.06
2016-12-11T03:10:18.079Z,82.87
2016-12-11T03:10:45.918Z,83.36
2016-12-11T03:11:13.793Z,83.16
2016-12-11T03:11:41.874Z,83.16
2016-12-11T03:12:09.752Z,82.87
2016-12-11T03:12:37.602Z,83.84
2016-12-11T03:13:05.538Z,83.55
2016-12-11T03:13:33.391Z,83.26
2016-12-11T03:14:01.255Z,83.74
2016-12-11T03:14:29.103Z,83.45
2016-12-11T03:14:56.894Z,83.74
2016-12-11T03:15:24.873Z,83.16
2016-12-11T03:15:52.761Z,84.03
2016-12-11T03:16:20.577Z,83.84
2016-12-11T03:16:48.419Z,83.84
2016-12-11T03:17:16.258Z,83.55
2016-12-11T03:17:44.164Z,82.87
2016-12-11T03:18:12.003Z,83.06
2016-12-11T03:18:39.907Z,83.26
2016-12-11T03:19:07.780Z,83.16
2016-12-11T03:19:35.604Z,82.97
2016-12-11T03:20:03.485Z,83.36
2016-12-11T03:20:31.318Z,83.74
2016-12-11T03:20:59.127Z,83.16
2016-12-11T03:21:27.088Z,83.55
2016-12-11T03:21:54.941Z,83.84
2016-12-11T03:22:22.719Z,83.84
2016-12-11T03:22:50.581Z,83.36
2016-12-11T03:23:18.434Z,83.16
2016-12-11T03:23:46.282Z,83.64
2016-12-11T03:24:14.113Z,83.94
2016-12-11T03:24:41.988Z,83.45
2016-12-11T03:25:09.857Z,83.84
2016-12-11T03:25:37.658Z,83.45
2016-12-11T03:26:05.535Z,83.94
2016-12-11T03:26:33.387Z,83.94
2016-12-11T03:27:01.186Z,83.94
2016-12-11T03:27:29.132Z,83.55
2016-12-11T03:27:56.945Z,84.03
2016-12-11T03:28:24.821Z,84.13
2016-12-11T03:28:52.616Z,83.55
2016-12-11T03:29:20.443Z,84.13
2016-12-11T03:29:48.270Z,84.42
2016-12-11T03:30:16.144Z,83.94
2016-12-11T03:30:43.954Z,83.8
2016-12-11T03:31:11.823Z,84.47
2016-12-11T03:31:39.619Z,84.19
2016-12-11T03:32:07.427Z,83.7
2016-12-11T03:32:35.331Z,83.8
2016-12-11T03:33:03.188Z,83.99
2016-12-11T03:33:31.005Z,84.47
2016-12-11T03:33:58.842Z,83.99
2016-12-11T03:34:26.671Z,84.09
2016-12-11T03:34:54.537Z,84.19
2016-12-11T03:35:22.372Z,83.99
2016-12-11T03:35:50.227Z,83.61
2016-12-11T03:36:18.047Z,83.7
2016-12-11T03:36:45.901Z,84.09
2016-12-11T03:37:13.710Z,84.57
2016-12-11T03:37:41.620Z,84.57
2016-12-11T03:38:09.436Z,84.38
2016-12-11T03:38:37.277Z,84.57
2016-12-11T03:39:05.131Z,84.47
2016-12-11T03:39:32.962Z,84.28
2016-12-11T03:40:00.799Z,84.57
2016-12-11T03:40:28.678Z,84.57
2016-12-11T03:40:56.485Z,84.09
2016-12-11T03:41:24.294Z,84.67
2016-12-11T03:41:52.140Z,84.47
2016-12-11T03:42:19.915Z,84.67
2016-12-11T03:42:47.828Z,84.38
2016-12-11T03:43:15.668Z,84.38
2016-12-11T03:43:43.510Z,85.05
2016-12-11T03:44:11.359Z,84.86
2016-12-11T03:44:39.216Z,84.95
2016-12-11T03:45:07.110Z,85.15
2016-12-11T03:45:35.009Z,84.86
2016-12-11T03:46:02.834Z,84.86
2016-12-11T03:46:30.692Z,84.95
2016-12-11T03:46:58.633Z,84.86
2016-12-11T03:47:26.437Z,85.25
2016-12-11T03:47:54.288Z,85.15
2016-12-11T03:48:22.156Z,84.95
2016-12-11T03:48:50.001Z,84.47
2016-12-11T03:49:17.834Z,84.67
2016-12-11T03:49:45.668Z,84.67
2016-12-11T03:50:13.611Z,85.15
2016-12-11T03:50:41.480Z,85.05
2016-12-11T03:51:09.325Z,84.77
2016-12-11T03:51:37.163Z,85.63
2016-12-11T03:52:04.988Z,84.95
2016-12-11T03:52:32.829Z,84.77
2016-12-11T03:53:00.650Z,84.95
2016-12-11T03:53:28.492Z,85.44
2016-12-11T03:53:56.276Z,85.44
2016-12-11T03:54:24.105Z,85.05
2016-12-11T03:54:51.937Z,85.35
2016-12-11T03:55:19.790Z,85.44
2016-12-11T03:55:47.633Z,85.35
2016-12-11T03:56:15.456Z,85.35
2016-12-11T03:56:43.332Z,85.35
2016-12-11T03:57:11.142Z,85.05
2016-12-11T03:57:38.928Z,85.05
2016-12-11T03:58:06.756Z,85.35
2016-12-11T03:58:34.622Z,85.53
2016-12-11T03:59:02.413Z,85.44
2016-12-11T03:59:30.276Z,84.95
2016-12-11T03:59:58.063Z,84.86
2016-12-11T04:00:25.941Z,85.35
2016-12-11T04:00:53.832Z,85.15
2016-12-11T04:01:21.660Z,85.15
2016-12-11T04:01:49.570Z,85.15
2016-12-11T04:02:17.373Z,85.35
2016-12-11T04:02:45.247Z,85.63
2016-12-11T04:03:13.092Z,85.35
2016-12-11T04:03:41.032Z,85.53
2016-12-11T04:04:08.857Z,85.05
2016-12-11T04:04:36.852Z,85.44
2016-12-11T04:05:04.699Z,85.15
2016-12-11T04:05:32.617Z,85.15
2016-12-11T04:06:00.474Z,85.83
2016-12-11T04:06:28.323Z,85.73
2016-12-11T04:06:56.182Z,85.53
2016-12-11T04:07:24.130Z,85.73
2016-12-11T04:07:51.996Z,86.02
2016-12-11T04:08:19.842Z,85.73
2016-12-11T04:08:47.632Z,85.44
2016-12-11T04:09:15.440Z,85.73
2016-12-11T04:09:43.317Z,85.73
2016-12-11T04:10:11.195Z,85.93
2016-12-11T04:10:39.013Z,85.53
2016-12-11T04:11:06.840Z,85.73
2016-12-11T04:11:34.718Z,85.63
2016-12-11T04:12:02.644Z,85.93
2016-12-11T04:12:30.467Z,85.73
2016-12-11T04:12:58.347Z,86.31
2016-12-11T04:13:26.202Z,86.02
2016-12-11T04:13:54.094Z,86.11
2016-12-11T04:14:21.935Z,85.59
2016-12-11T04:14:49.742Z,85.98
2016-12-11T04:15:17.531Z,86.07
2016-12-11T04:15:45.414Z,85.98
2016-12-11T04:16:13.301Z,86.75
2016-12-11T04:16:41.133Z,86.46
2016-12-11T04:17:08.935Z,86.46
2016-12-11T04:17:36.743Z,86.17
2016-12-11T04:18:04.591Z,86.07
2016-12-11T04:18:32.450Z,86.51
2016-12-11T04:19:00.259Z,86.65
2016-12-11T04:19:28.253Z,86.46
2016-12-11T04:19:56.081Z,86.36
2016-12-11T04:20:23.960Z,86.56
2016-12-11T04:20:51.797Z,86.65
2016-12-11T04:21:19.631Z,86.51
2016-12-11T04:21:47.471Z,86.46
2016-12-11T04:22:15.340Z,87.23
2016-12-11T04:22:43.165Z,87.13
2016-12-11T04:23:10.991Z,86.56
2016-12-11T04:23:38.820Z,86.56
2016-12-11T04:24:06.675Z,86.75
2016-12-11T04:24:34.613Z,87.23
2016-12-11T04:25:02.433Z,86.65
2016-12-11T04:25:30.323Z,86.75
2016-12-11T04:25:58.169Z,86.65
2016-12-11T04:26:26.015Z,86.27
2016-12-11T04:26:53.848Z,86.21
2016-12-11T04:27:21.737Z,85.98
2016-12-11T04:27:49.634Z,86.56
2016-12-11T04:28:17.463Z,86.75
2016-12-11T04:28:45.336Z,86.75
2016-12-11T04:29:13.189Z,86.46
2016-12-11T04:29:41.033Z,86.27
2016-12-11T04:30:08.844Z,86.56
2016-12-11T04:30:36.666Z,86.46
2016-12-11T04:31:04.539Z,86.36
2016-12-11T04:31:32.371Z,87.13
2016-12-11T04:32:00.196Z,87.04
2016-12-11T04:32:28.035Z,87.13
2016-12-11T04:32:55.862Z,87.23
2016-12-11T04:33:23.740Z,87.13
2016-12-11T04:33:51.609Z,87.33
2016-12-11T04:34:19.447Z,87.23
2016-12-11T04:34:47.307Z,87.23
2016-12-11T04:35:15.263Z,87.33
2016-12-11T04:35:43.072Z,87.13
2016-12-11T04:36:10.901Z,87.43
2016-12-11T04:36:38.696Z,87.13
2016-12-11T04:37:06.559Z,87.13
2016-12-11T04:37:34.348Z,87.04
2016-12-11T04:38:02.255Z,86.65
2016-12-11T04:38:30.069Z,86.94
2016-12-11T04:38:57.923Z,86.94
2016-12-11T04:39:25.829Z,86.56
2016-12-11T04:39:53.635Z,86.36
2016-12-11T04:40:21.471Z,87.13
2016-12-11T04:40:49.335Z,86.65
2016-12-11T04:41:17.298Z,86.94
2016-12-11T04:41:45.134Z,87.23
2016-12-11T04:42:12.982Z,86.6
2016-12-11T04:42:40.864Z,86.99
2016-12-11T04:43:08.713Z,87.13
2016-12-11T04:43:36.584Z,87.04
2016-12-11T04:44:04.432Z,87.13
2016-12-11T04:44:32.287Z,86.65
2016-12-11T04:45:00.219Z,86.65
2016-12-11T04:45:28.161Z,87.08
2016-12-11T04:45:55.984Z,86.94
2016-12-11T04:46:23.859Z,86.99
2016-12-11T04:46:51.701Z,86.65
2016-12-11T04:47:19.594Z,86.51
2016-12-11T04:47:47.544Z,86.36
2016-12-11T04:48:15.397Z,87.33
2016-12-11T04:48:43.319Z,87.23
2016-12-11T04:49:11.177Z,87.13
2016-12-11T04:49:38.976Z,87.13
2016-12-11T04:50:06.835Z,87.13
2016-12-11T04:50:34.704Z,87.47
2016-12-11T04:51:02.519Z,87.23
2016-12-11T04:51:30.398Z,87.62
2016-12-11T04:51:58.264Z,87.13
2016-12-11T04:52:26.148Z,87.33
2016-12-11T04:52:53.969Z,87.43
2016-12-11T04:53:21.834Z,87.43
2016-12-11T04:53:49.687Z,87.13
2016-12-11T04:54:17.523Z,87.33
2016-12-11T04:54:45.359Z,87.62
2016-12-11T04:55:13.195Z,87.13
2016-12-11T04:55:41.025Z,87.23
2016-12-11T04:56:08.890Z,87.13
2016-12-11T04:56:36.713Z,87.33
2016-12-11T04:57:04.527Z,87.62
2016-12-11T04:57:32.331Z,87.33
2016-12-11T04:58:00.194Z,87.52
2016-12-11T04:58:28.051Z,87.33
2016-12-11T04:58:55.898Z,87.23
2016-12-11T04:59:23.734Z,87.33
2016-12-11T04:59:51.529Z,87.62
2016-12-11T05:00:19.342Z,87.62
2016-12-11T05:00:47.185Z,87.43
2016-12-11T05:01:15.056Z,87.13
2016-12-11T05:01:42.903Z,87.13
2016-12-11T05:02:10.757Z,87.18
2016-12-11T05:02:38.620Z,87.33
2016-12-11T05:03:06.479Z,87.23
2016-12-11T05:03:34.307Z,87.33
2016-12-11T05:04:02.176Z,87.13
2016-12-11T05:04:30.054Z,86.94
2016-12-11T05:04:57.909Z,86.85
2016-12-11T05:05:25.762Z,87.23
2016-12-11T05:05:53.598Z,87.13
2016-12-11T05:06:21.460Z,87.23
2016-12-11T05:06:49.286Z,87.13
2016-12-11T05:07:17.127Z,87.33
2016-12-11T05:07:44.950Z,86.94
2016-12-11T05:08:12.787Z,87.33
2016-12-11T05:08:40.641Z,87.04
2016-12-11T05:09:08.514Z,87.33
2016-12-11T05:09:36.386Z,87.33
2016-12-11T05:10:04.179Z,87.33
2016-12-11T05:10:32.055Z,87.52
2016-12-11T05:10:59.892Z,87.23
2016-12-11T05:11:27.735Z,87.23
2016-12-11T05:11:55.610Z,87.52
2016-12-11T05:12:23.431Z,87.52
2016-12-11T05:12:51.297Z,87.33
2016-12-11T05:13:19.307Z,87.37
2016-12-11T05:13:47.187Z,86.94
2016-12-11T05:14:14.975Z,87.13
2016-12-11T05:14:42.940Z,87.43
2016-12-11T05:15:10.757Z,87.13
2016-12-11T05:15:38.573Z,87.33
2016-12-11T05:16:06.481Z,87.23
2016-12-11T05:16:34.268Z,87.04
2016-12-11T05:17:02.169Z,87.62
2016-12-11T05:17:29.995Z,86.85
2016-12-11T05:17:57.817Z,87.04
2016-12-11T05:18:25.655Z,87.33
2016-12-11T05:18:53.514Z,87.33
2016-12-11T05:19:21.326Z,87.13
2016-12-11T05:19:49.208Z,87.33
2016-12-11T05:20:17.151Z,87.23
2016-12-11T05:20:44.960Z,87.33
2016-12-11T05:21:12.817Z,87.23
2016-12-11T05:21:40.654Z,87.13
2016-12-11T05:22:08.527Z,86.56
2016-12-11T05:22:36.335Z,87.13
2016-12-11T05:23:04.181Z,87.13
2016-12-11T05:23:32.131Z,86.85
2016-12-11T05:23:59.971Z,86.36
2016-12-11T05:24:27.857Z,86.46
2016-12-11T05:24:55.696Z,86.75
2016-12-11T05:25:23.541Z,87.23
2016-12-11T05:25:51.383Z,86.75
2016-12-11T05:26:19.217Z,87.13
2016-12-11T05:26:47.076Z,87.04
2016-12-11T05:27:14.922Z,87.13
2016-12-11T05:27:42.797Z,87.52
2016-12-11T05:28:10.603Z,87.13
2016-12-11T05:28:38.440Z,86.94
2016-12-11T05:29:06.271Z,86.6
2016-12-11T05:29:34.142Z,86.56
2016-12-11T05:30:01.979Z,86.46
2016-12-11T05:30:29.886Z,86.27
2016-12-11T05:30:57.775Z,86.56
2016-12-11T05:31:25.647Z,86.36
2016-12-11T05:31:53.432Z,86.94
2016-12-11T05:32:21.253Z,87.43
2016-12-11T05:32:49.057Z,87.33
2016-12-11T05:33:16.863Z,87.43
2016-12-11T05:33:44.708Z,87.43
2016-12-11T05:34:12.608Z,87.33
2016-12-11T05:34:40.466Z,86.94
2016-12-11T05:35:08.317Z,87.23
2016-12-11T05:35:36.165Z,86.65
2016-12-11T05:36:03.955Z,86.94
2016-12-11T05:36:31.785Z,87.23
2016-12-11T05:36:59.647Z,87.43
2016-12-11T05:37:27.524Z,87.33
2016-12-11T05:37:55.326Z,86.85
2016-12-11T05:38:23.222Z,87.33
2016-12-11T05:38:51.077Z,87.23
2016-12-11T05:39:18.930Z,87.23
2016-12-11T05:39:46.764Z,86.75
2016-12-11T05:40:14.647Z,87.43
2016-12-11T05:40:42.498Z,87.23
2016-12-11T05:41:10.476Z,87.23
2016-12-11T05:41:38.298Z,87.23
2016-12-11T05:42:06.141Z,87.33
2016-12-11T05:42:33.996Z,87.33
2016-12-11T05:43:01.857Z,87.33
2016-12-11T05:43:29.766Z,87.62
2016-12-11T05:43:57.616Z,87.13
2016-12-11T05:44:25.506Z,87.23
2016-12-11T05:44:53.348Z,86.94
2016-12-11T05:45:21.208Z,87.23
2016-12-11T05:45:49.082Z,87.23
2016-12-11T05:46:16.981Z,87.13
2016-12-11T05:46:44.800Z,87.04
2016-12-11T05:47:12.613Z,87.13
2016-12-11T05:47:40.495Z,87.13
2016-12-11T05:48:08.342Z,87.23
2016-12-11T05:48:36.167Z,87.13
2016-12-11T05:49:03.970Z,87.43
2016-12-11T05:49:31.807Z,87.04
2016-12-11T05:49:59.692Z,87.33
2016-12-11T05:50:27.590Z,87.13
2016-12-11T05:50:55.464Z,87.13
2016-12-11T05:51:23.305Z,87.33
2016-12-11T05:51:51.162Z,87.52
2016-12-11T05:52:18.957Z,87.33
2016-12-11T05:52:46.805Z,87.33
2016-12-11T05:53:14.696Z,87.13
2016-12-11T05:53:43.185Z,87.23
2016-12-11T05:54:11.057Z,86.94
2016-12-11T05:54:38.925Z,86.75
2016-12-11T05:55:06.764Z,86.46
2016-12-11T05:55:34.626Z,86.36
2016-12-11T05:56:02.476Z,87.13
2016-12-11T05:56:30.257Z,87.04
2016-12-11T05:56:58.140Z,86.65
2016-12-11T05:57:26.382Z,86.94
2016-12-11T05:57:54.248Z,86.94
2016-12-11T05:58:22.098Z,86.94
2016-12-11T05:58:50.002Z,86.94
2016-12-11T05:59:17.830Z,87.08
2016-12-11T05:59:45.632Z,86.27